createdAt,value
2023-09-17T00:00:21.078Z,8.50
2023-09-17T00:02:47.879Z,8.88
2023-09-17T00:05:14.663Z,9.68
2023-09-17T00:07:42.095Z,9.38
2023-09-17T00:10:09.165Z,10.13
2023-09-17T00:12:35.985Z,11.60
2023-09-17T00:15:04.592Z,9.68
2023-09-17T00:17:31.592Z,16.73
2023-09-17T00:19:58.539Z,14.05
2023-09-17T00:22:26.039Z,13.18
2023-09-17T00:24:52.879Z,13.60
2023-09-17T00:27:19.596Z,13.07
2023-09-17T00:29:46.199Z,13.27
2023-09-17T00:32:12.777Z,12.55
2023-09-17T00:34:39.598Z,11.90
2023-09-17T00:37:06.247Z,11.70
2023-09-17T00:39:32.863Z,11.80
2023-09-17T00:41:59.828Z,12.15
2023-09-17T00:44:26.625Z,11.70
2023-09-17T00:46:53.491Z,11.05
2023-09-17T00:49:20.849Z,10.60
2023-09-17T00:51:47.837Z,11.55
2023-09-17T00:54:15.241Z,12.02
2023-09-17T00:56:42.051Z,10.90
2023-09-17T00:59:09.140Z,9.63
2023-09-17T01:01:36.898Z,10.07
2023-09-17T01:04:04.477Z,9.82
2023-09-17T01:06:31.629Z,9.95
2023-09-17T01:08:59.425Z,9.65
2023-09-17T01:11:26.944Z,9.10
2023-09-17T01:14:00.117Z,8.07
2023-09-17T01:16:28.070Z,7.90
2023-09-17T01:18:55.366Z,6.60
2023-09-17T01:21:37.156Z,6.57
2023-09-17T01:24:28.009Z,6.30
2023-09-17T01:27:04.891Z,5.80
2023-09-17T01:29:39.266Z,6.05
2023-09-17T01:32:07.136Z,6.00
2023-09-17T01:34:39.039Z,6.03
2023-09-17T01:39:54.868Z,5.70
2023-09-17T01:42:23.513Z,6.30
2023-09-17T01:44:51.282Z,5.68
2023-09-17T01:47:20.662Z,5.57
2023-09-17T01:49:47.816Z,5.35
2023-09-17T01:52:16.124Z,6.63
2023-09-17T01:54:42.790Z,6.10
2023-09-17T01:57:09.515Z,5.93
2023-09-17T01:59:36.153Z,6.43
2023-09-17T02:02:03.699Z,6.75
2023-09-17T02:04:30.458Z,6.68
2023-09-17T02:06:57.067Z,7.30
2023-09-17T02:09:23.671Z,7.03
2023-09-17T02:11:51.331Z,5.68
2023-09-17T02:14:17.924Z,5.93
2023-09-17T02:16:44.929Z,5.38
2023-09-17T02:19:11.632Z,5.32
2023-09-17T02:21:38.215Z,6.03
2023-09-17T02:24:05.183Z,5.22
2023-09-17T02:26:31.843Z,5.15
2023-09-17T02:28:58.467Z,5.40
2023-09-17T02:31:25.435Z,4.60
2023-09-17T02:33:52.337Z,5.43
2023-09-17T02:36:19.376Z,5.25
2023-09-17T02:38:46.687Z,5.68
2023-09-17T02:41:13.691Z,5.10
2023-09-17T02:43:40.745Z,5.70
2023-09-17T02:46:07.667Z,5.47
2023-09-17T02:48:34.340Z,5.57
2023-09-17T02:51:01.120Z,4.95
2023-09-17T02:53:27.702Z,5.90
2023-09-17T02:55:55.954Z,5.30
2023-09-17T02:58:22.634Z,4.65
2023-09-17T03:00:49.208Z,5.32
2023-09-17T03:03:16.838Z,5.00
2023-09-17T03:05:49.602Z,4.97
2023-09-17T03:08:16.247Z,6.15
2023-09-17T03:10:43.919Z,5.13
2023-09-17T03:13:11.726Z,4.95
2023-09-17T03:15:38.414Z,5.40
2023-09-17T03:18:05.660Z,5.55
2023-09-17T03:20:34.906Z,5.55
2023-09-17T03:23:05.915Z,5.60
2023-09-17T03:25:33.278Z,5.78
2023-09-17T03:28:03.374Z,5.22
2023-09-17T03:30:29.994Z,5.10
2023-09-17T03:33:04.416Z,5.30
2023-09-17T03:35:32.169Z,5.78
2023-09-17T03:37:58.794Z,5.20
2023-09-17T03:40:26.050Z,5.70
2023-09-17T03:42:53.623Z,5.13
2023-09-17T03:45:20.316Z,5.82
2023-09-17T03:47:48.721Z,5.43
2023-09-17T03:50:20.770Z,5.28
2023-09-17T03:52:50.521Z,4.65
2023-09-17T03:55:17.554Z,4.93
2023-09-17T03:57:44.307Z,5.18
2023-09-17T04:00:14.517Z,5.30
2023-09-17T04:02:43.301Z,5.63
2023-09-17T04:05:15.711Z,6.63
2023-09-17T04:07:44.322Z,5.53
2023-09-17T04:10:13.387Z,5.80
2023-09-17T04:12:42.053Z,5.07
2023-09-17T04:15:14.662Z,5.63
2023-09-17T04:17:41.607Z,5.30
2023-09-17T04:20:12.379Z,5.55
2023-09-17T04:22:39.219Z,5.53
2023-09-17T04:25:10.953Z,5.13
2023-09-17T04:27:38.728Z,5.00
2023-09-17T04:30:08.504Z,4.93
2023-09-17T04:32:39.644Z,5.03
2023-09-17T04:35:08.636Z,5.20
2023-09-17T04:37:36.417Z,5.85
2023-09-17T04:40:05.635Z,5.65
2023-09-17T04:42:32.891Z,6.07
2023-09-17T04:44:59.505Z,5.75
2023-09-17T04:47:26.322Z,6.22
2023-09-17T04:49:52.987Z,5.60
2023-09-17T04:52:19.691Z,4.90
2023-09-17T04:54:46.541Z,5.22
2023-09-17T04:57:13.118Z,4.10
2023-09-17T04:59:39.715Z,4.30
2023-09-17T05:02:06.468Z,4.03
2023-09-17T05:04:33.169Z,3.72
2023-09-17T05:07:00.179Z,3.90
2023-09-17T05:09:29.527Z,3.97
2023-09-17T05:11:56.124Z,3.40
2023-09-17T05:14:22.852Z,3.55
2023-09-17T05:16:49.467Z,3.22
2023-09-17T05:19:16.152Z,3.22
2023-09-17T05:21:42.764Z,3.03
2023-09-17T05:24:09.475Z,3.65
2023-09-17T05:26:36.033Z,3.08
2023-09-17T05:29:02.770Z,3.53
2023-09-17T05:31:29.613Z,3.00
2023-09-17T05:33:56.291Z,3.47
2023-09-17T05:36:22.954Z,3.08
2023-09-17T05:38:49.525Z,3.15
2023-09-17T05:41:16.654Z,3.17
2023-09-17T05:43:43.358Z,3.72
2023-09-17T05:46:10.055Z,3.33
2023-09-17T05:48:36.750Z,3.47
2023-09-17T05:51:04.816Z,3.33
2023-09-17T05:53:32.397Z,3.15
2023-09-17T05:55:59.246Z,3.20
2023-09-17T05:58:25.963Z,2.88
2023-09-17T06:00:54.557Z,3.63
2023-09-17T06:03:21.328Z,3.50
2023-09-17T06:05:48.019Z,3.08
2023-09-17T06:08:14.700Z,3.30
2023-09-17T06:10:41.308Z,3.25
2023-09-17T06:13:08.277Z,3.03
2023-09-17T06:15:35.001Z,3.92
2023-09-17T06:18:02.230Z,3.40
2023-09-17T06:20:29.242Z,3.20
2023-09-17T06:22:55.881Z,2.97
2023-09-17T06:25:24.877Z,3.97
2023-09-17T06:27:51.608Z,3.60
2023-09-17T06:30:19.054Z,3.63
2023-09-17T06:32:46.675Z,3.63
2023-09-17T06:35:13.411Z,3.63
2023-09-17T06:37:40.414Z,3.22
2023-09-17T06:40:09.630Z,4.30
2023-09-17T06:42:36.304Z,3.70
2023-09-17T06:45:03.179Z,4.22
2023-09-17T06:47:29.938Z,4.07
2023-09-17T06:49:56.736Z,4.50
2023-09-17T06:52:26.724Z,4.07
2023-09-17T06:54:53.982Z,4.05
2023-09-17T06:57:20.585Z,4.75
2023-09-17T06:59:48.117Z,3.70
2023-09-17T07:02:14.751Z,4.47
2023-09-17T07:04:41.555Z,4.60
2023-09-17T07:07:08.429Z,4.07
2023-09-17T07:09:35.315Z,4.78
2023-09-17T07:12:01.962Z,5.25
2023-09-17T07:14:28.578Z,4.03
2023-09-17T07:16:55.439Z,3.90
2023-09-17T07:19:22.246Z,4.50
2023-09-17T07:21:48.837Z,4.15
2023-09-17T07:24:15.553Z,4.80
2023-09-17T07:26:43.621Z,4.75
2023-09-17T07:29:10.696Z,4.88
2023-09-17T07:31:37.440Z,5.07
2023-09-17T07:34:04.845Z,3.90
2023-09-17T07:36:31.422Z,4.47
2023-09-17T07:38:57.984Z,4.72
2023-09-17T07:41:24.693Z,4.70
2023-09-17T07:43:51.734Z,4.63
2023-09-17T07:46:18.589Z,5.25
2023-09-17T07:48:47.449Z,3.92
2023-09-17T07:51:14.255Z,4.60
2023-09-17T07:53:40.880Z,5.18
2023-09-17T07:56:07.629Z,6.18
2023-09-17T07:58:34.814Z,6.03
2023-09-17T08:01:01.490Z,5.55
2023-09-17T08:03:28.158Z,4.82
2023-09-17T08:05:55.169Z,4.50
2023-09-17T08:08:21.911Z,6.13
2023-09-17T08:10:50.696Z,4.97
2023-09-17T08:13:17.542Z,4.65
2023-09-17T08:15:44.783Z,5.05
2023-09-17T08:18:11.468Z,4.45
2023-09-17T08:20:38.140Z,4.97
2023-09-17T08:23:05.100Z,5.47
2023-09-17T08:25:32.135Z,5.70
2023-09-17T08:28:00.921Z,5.47
2023-09-17T08:30:27.666Z,4.40
2023-09-17T08:32:54.441Z,4.30
2023-09-17T08:35:21.142Z,5.15
2023-09-17T08:37:49.503Z,4.43
2023-09-17T08:40:19.228Z,5.43
2023-09-17T08:42:47.207Z,5.20
2023-09-17T08:45:14.908Z,4.50
2023-09-17T08:47:41.671Z,4.40
2023-09-17T08:50:10.548Z,4.90
2023-09-17T08:52:45.069Z,4.38
2023-09-17T08:55:12.764Z,3.72
2023-09-17T08:57:43.317Z,4.93
2023-09-17T09:00:12.258Z,4.50
2023-09-17T09:02:49.942Z,4.05
2023-09-17T09:05:18.194Z,4.63
2023-09-17T09:07:48.766Z,4.63
2023-09-17T09:10:16.243Z,4.13
2023-09-17T09:12:44.117Z,4.05
2023-09-17T09:15:11.647Z,4.60
2023-09-17T09:17:41.469Z,4.25
2023-09-17T09:20:12.640Z,4.70
2023-09-17T09:22:39.828Z,4.57
2023-09-17T09:25:10.041Z,4.13
2023-09-17T09:27:38.739Z,4.43
2023-09-17T09:30:10.948Z,3.42
2023-09-17T09:32:38.811Z,3.92
2023-09-17T09:35:06.953Z,4.00
2023-09-17T09:37:35.752Z,3.80
2023-09-17T09:40:03.977Z,3.97
2023-09-17T09:42:31.772Z,3.78
2023-09-17T09:44:58.539Z,4.15
2023-09-17T09:47:25.273Z,3.85
2023-09-17T09:49:52.426Z,4.63
2023-09-17T09:52:22.383Z,3.63
2023-09-17T09:54:49.031Z,4.25
2023-09-17T09:57:20.442Z,3.75
2023-09-17T09:59:49.360Z,3.50
2023-09-17T10:02:17.606Z,3.75
2023-09-17T10:04:47.552Z,3.30
2023-09-17T10:07:16.392Z,4.00
2023-09-17T10:09:43.987Z,4.38
2023-09-17T10:12:10.786Z,4.20
2023-09-17T10:14:38.976Z,3.13
2023-09-17T10:17:09.284Z,3.47
2023-09-17T10:19:36.631Z,3.65
2023-09-17T10:22:09.314Z,3.63
2023-09-17T10:24:39.603Z,3.67
2023-09-17T10:27:10.006Z,3.35
2023-09-17T10:29:38.022Z,3.60
2023-09-17T10:32:05.273Z,6.60
2023-09-17T10:34:34.471Z,5.40
2023-09-17T10:37:04.003Z,8.50
2023-09-17T10:39:32.211Z,7.20
2023-09-17T10:42:02.396Z,4.20
2023-09-17T10:44:30.435Z,4.03
2023-09-17T10:47:00.770Z,3.90
2023-09-17T10:49:28.314Z,4.38
2023-09-17T10:51:56.651Z,3.83
2023-09-17T10:54:23.339Z,3.60
2023-09-17T10:56:50.716Z,3.67
2023-09-17T10:59:19.156Z,3.40
2023-09-17T11:01:47.509Z,3.40
2023-09-17T11:04:22.218Z,3.40
2023-09-17T11:06:51.698Z,3.70
2023-09-17T11:09:19.353Z,3.58
2023-09-17T11:11:46.378Z,3.97
2023-09-17T11:14:15.400Z,3.80
2023-09-17T11:16:42.388Z,4.82
2023-09-17T11:19:22.691Z,3.70
2023-09-17T11:22:01.645Z,3.45
2023-09-17T11:24:28.782Z,3.55
2023-09-17T11:26:58.274Z,3.90
2023-09-17T11:29:42.262Z,3.80
2023-09-17T11:32:09.442Z,3.35
2023-09-17T11:34:39.700Z,3.20
2023-09-17T11:37:07.266Z,3.38
2023-09-17T11:39:37.000Z,3.70
2023-09-17T11:42:07.304Z,3.47
2023-09-17T11:44:36.582Z,3.78
2023-09-17T11:47:05.809Z,3.55
2023-09-17T11:49:33.994Z,3.60
2023-09-17T11:52:01.297Z,3.00
2023-09-17T11:54:41.952Z,3.58
2023-09-17T11:57:09.250Z,3.40
2023-09-17T11:59:39.745Z,3.33
2023-09-17T12:02:09.787Z,2.90
2023-09-17T12:04:37.326Z,3.25
2023-09-17T12:07:09.155Z,3.38
2023-09-17T12:09:47.730Z,3.00
2023-09-17T12:12:14.696Z,3.20
2023-09-17T12:14:41.860Z,3.42
2023-09-17T12:17:08.581Z,3.10
2023-09-17T12:19:35.464Z,3.55
2023-09-17T12:22:02.342Z,3.70
2023-09-17T12:24:36.004Z,2.50
2023-09-17T12:27:12.443Z,3.28
2023-09-17T12:29:39.867Z,3.10
2023-09-17T12:32:07.344Z,3.60
2023-09-17T12:34:38.384Z,3.38
2023-09-17T12:37:08.458Z,3.40
2023-09-17T12:39:35.474Z,3.70
2023-09-17T12:42:02.140Z,3.60
2023-09-17T12:44:29.404Z,3.30
2023-09-17T12:46:56.482Z,3.42
2023-09-17T12:49:24.220Z,3.15
2023-09-17T12:51:54.102Z,3.38
2023-09-17T12:54:22.875Z,3.00
2023-09-17T12:56:51.896Z,3.30
2023-09-17T12:59:39.316Z,3.00
2023-09-17T13:02:07.279Z,3.60
2023-09-17T13:04:34.746Z,3.38
2023-09-17T13:07:03.568Z,3.50
2023-09-17T13:09:32.852Z,3.17
2023-09-17T13:12:01.722Z,4.05
2023-09-17T13:14:30.776Z,3.28
2023-09-17T13:16:57.667Z,3.28
2023-09-17T13:19:24.641Z,3.20
2023-09-17T13:21:51.420Z,3.60
2023-09-17T13:24:19.429Z,3.08
2023-09-17T13:26:46.125Z,3.22
2023-09-17T13:29:13.089Z,3.50
2023-09-17T13:31:43.168Z,3.38
2023-09-17T13:34:11.529Z,3.10
2023-09-17T13:36:38.894Z,3.58
2023-09-17T13:39:05.706Z,3.20
2023-09-17T13:41:32.468Z,3.22
2023-09-17T13:43:59.502Z,3.20
2023-09-17T13:46:26.326Z,3.08
2023-09-17T13:48:53.083Z,3.17
2023-09-17T13:51:19.942Z,3.10
2023-09-17T13:53:46.553Z,3.17
2023-09-17T13:56:13.232Z,3.78
2023-09-17T13:58:39.913Z,3.47
2023-09-17T14:01:07.257Z,3.35
2023-09-17T14:03:34.320Z,3.10
2023-09-17T14:06:00.928Z,2.88
2023-09-17T14:08:27.633Z,2.83
2023-09-17T14:10:54.314Z,3.42
2023-09-17T14:13:20.967Z,2.92
2023-09-17T14:15:47.676Z,2.70
2023-09-17T14:18:17.763Z,3.53
2023-09-17T14:20:44.352Z,3.35
2023-09-17T14:23:11.134Z,2.80
2023-09-17T14:25:37.785Z,3.20
2023-09-17T14:28:04.674Z,3.10
2023-09-17T14:30:31.355Z,3.45
2023-09-17T14:32:59.176Z,3.08
2023-09-17T14:35:27.595Z,3.10
2023-09-17T14:37:55.576Z,3.00
2023-09-17T14:40:22.319Z,3.33
2023-09-17T14:42:49.095Z,3.40
2023-09-17T14:45:15.738Z,3.40
2023-09-17T14:47:43.743Z,3.20
2023-09-17T14:50:12.455Z,2.85
2023-09-17T14:52:39.452Z,3.38
2023-09-17T14:55:07.076Z,3.42
2023-09-17T14:57:37.089Z,3.47
2023-09-17T15:00:06.121Z,3.58
2023-09-17T15:02:33.615Z,3.35
2023-09-17T15:05:01.433Z,3.33
2023-09-17T15:07:28.248Z,3.40
2023-09-17T15:09:54.945Z,3.47
2023-09-17T15:12:21.609Z,3.42
2023-09-17T15:14:48.410Z,3.50
2023-09-17T15:17:15.150Z,3.53
2023-09-17T15:19:42.077Z,4.07
2023-09-17T15:22:08.786Z,3.50
2023-09-17T15:24:35.417Z,3.20
2023-09-17T15:27:02.031Z,3.25
2023-09-17T15:29:30.194Z,3.95
2023-09-17T15:31:57.240Z,3.42
2023-09-17T15:34:24.479Z,3.33
2023-09-17T15:36:52.324Z,3.53
2023-09-17T15:39:19.890Z,3.45
2023-09-17T15:41:46.511Z,3.72
2023-09-17T15:44:16.012Z,3.55
2023-09-17T15:46:43.530Z,3.67
2023-09-17T15:49:10.877Z,3.65
2023-09-17T15:51:37.815Z,3.92
2023-09-17T15:54:05.178Z,3.50
2023-09-17T15:56:32.403Z,4.15
2023-09-17T15:58:59.096Z,3.55
2023-09-17T16:01:25.892Z,3.80
2023-09-17T16:03:52.824Z,3.78
2023-09-17T16:06:24.478Z,3.92
2023-09-17T16:08:54.768Z,3.58
2023-09-17T16:11:21.603Z,3.80
2023-09-17T16:13:48.433Z,3.53
2023-09-17T16:16:15.245Z,4.57
2023-09-17T16:18:41.902Z,4.20
2023-09-17T16:21:09.026Z,3.42
2023-09-17T16:23:35.961Z,4.38
2023-09-17T16:26:03.482Z,3.50
2023-09-17T16:28:30.299Z,3.58
2023-09-17T16:30:56.948Z,3.90
2023-09-17T16:33:23.807Z,3.67
2023-09-17T16:35:51.288Z,4.20
2023-09-17T16:38:18.073Z,4.10
2023-09-17T16:40:46.092Z,4.22
2023-09-17T16:43:15.746Z,5.15
2023-09-17T16:45:44.218Z,3.72
2023-09-17T16:48:12.048Z,4.07
2023-09-17T16:50:39.906Z,3.80
2023-09-17T16:53:06.849Z,4.10
2023-09-17T16:55:35.209Z,3.58
2023-09-17T16:58:01.965Z,4.00
2023-09-17T17:00:28.567Z,4.72
2023-09-17T17:02:55.398Z,4.68
2023-09-17T17:05:22.462Z,4.30
2023-09-17T17:07:49.124Z,8.23
2023-09-17T17:10:16.153Z,4.85
2023-09-17T17:12:42.748Z,4.10
2023-09-17T17:15:09.581Z,4.45
2023-09-17T17:17:36.374Z,4.85
2023-09-17T17:20:04.999Z,4.43
2023-09-17T17:22:43.136Z,4.18
2023-09-17T17:25:10.540Z,4.57
2023-09-17T17:27:37.244Z,5.03
2023-09-17T17:30:05.794Z,4.45
2023-09-17T17:32:33.109Z,4.43
2023-09-17T17:35:00.018Z,5.05
2023-09-17T17:37:27.084Z,4.28
2023-09-17T17:39:58.398Z,4.57
2023-09-17T17:42:25.679Z,5.57
2023-09-17T17:44:52.341Z,4.50
2023-09-17T17:47:19.547Z,4.85
2023-09-17T17:49:47.823Z,4.53
2023-09-17T17:52:14.454Z,5.32
2023-09-17T17:54:41.021Z,4.80
2023-09-17T17:57:08.802Z,5.18
2023-09-17T17:59:35.447Z,5.00
2023-09-17T18:02:02.166Z,4.55
2023-09-17T18:04:28.805Z,4.95
2023-09-17T18:06:57.623Z,5.30
2023-09-17T18:09:25.600Z,4.82
2023-09-17T18:11:52.189Z,5.05
2023-09-17T18:14:18.796Z,5.43
2023-09-17T18:16:45.670Z,5.13
2023-09-17T18:19:12.532Z,5.40
2023-09-17T18:21:39.106Z,5.35
2023-09-17T18:24:06.114Z,4.70
2023-09-17T18:26:33.159Z,5.13
2023-09-17T18:28:59.859Z,4.93
2023-09-17T18:31:26.556Z,5.30
2023-09-17T18:33:53.354Z,5.40
2023-09-17T18:36:20.912Z,5.00
2023-09-17T18:38:49.470Z,4.85
2023-09-17T18:41:16.182Z,5.32
2023-09-17T18:43:42.771Z,5.55
2023-09-17T18:46:09.399Z,5.03
2023-09-17T18:48:36.076Z,5.63
2023-09-17T18:51:02.762Z,5.30
2023-09-17T18:53:29.413Z,5.47
2023-09-17T18:55:56.091Z,5.38
2023-09-17T18:58:23.214Z,5.18
2023-09-17T19:00:49.951Z,5.68
2023-09-17T19:03:16.808Z,5.60
2023-09-17T19:05:45.348Z,4.88
2023-09-17T19:08:11.982Z,5.05
2023-09-17T19:10:38.922Z,5.60
2023-09-17T19:13:05.599Z,5.68
2023-09-17T19:15:32.371Z,5.95
2023-09-17T19:17:58.985Z,5.75
2023-09-17T19:20:26.061Z,5.10
2023-09-17T19:22:52.695Z,5.05
2023-09-17T19:25:19.437Z,5.60
2023-09-17T19:27:46.093Z,5.10
2023-09-17T19:30:13.403Z,5.53
2023-09-17T19:32:40.108Z,4.97
2023-09-17T19:35:07.089Z,5.60
2023-09-17T19:37:33.761Z,5.47
2023-09-17T19:40:00.348Z,5.40
2023-09-17T19:42:29.100Z,6.00
2023-09-17T19:44:56.440Z,5.85
2023-09-17T19:47:23.123Z,5.18
2023-09-17T19:49:49.747Z,5.78
2023-09-17T19:52:16.565Z,5.00
2023-09-17T19:54:45.230Z,6.03
2023-09-17T19:57:12.019Z,5.78
2023-09-17T19:59:38.653Z,5.53
2023-09-17T20:02:05.404Z,5.90
2023-09-17T20:04:32.598Z,5.47
2023-09-17T20:07:01.204Z,5.20
2023-09-17T20:09:28.428Z,5.10
2023-09-17T20:11:56.515Z,5.70
2023-09-17T20:14:23.490Z,5.70
2023-09-17T20:16:50.223Z,6.18
2023-09-17T20:19:16.908Z,5.63
2023-09-17T20:21:43.564Z,5.20
2023-09-17T20:24:10.190Z,5.25
2023-09-17T20:26:37.957Z,4.97
2023-09-17T20:29:05.580Z,5.20
2023-09-17T20:31:32.510Z,5.07
2023-09-17T20:33:59.198Z,6.07
2023-09-17T20:36:25.835Z,5.45
2023-09-17T20:38:52.869Z,5.10
2023-09-17T20:41:19.738Z,5.78
2023-09-17T20:43:46.527Z,5.35
2023-09-17T20:46:13.293Z,5.57
2023-09-17T20:48:39.925Z,5.13
2023-09-17T20:51:06.594Z,5.55
2023-09-17T20:53:33.449Z,5.70
2023-09-17T20:56:00.376Z,5.03
2023-09-17T20:58:27.110Z,6.15
2023-09-17T21:00:53.877Z,5.93
2023-09-17T21:03:20.711Z,5.47
2023-09-17T21:05:48.731Z,6.55
2023-09-17T21:08:15.992Z,5.78
2023-09-17T21:10:43.911Z,5.78
2023-09-17T21:13:12.015Z,5.90
2023-09-17T21:15:39.307Z,5.75
2023-09-17T21:18:07.079Z,6.00
2023-09-17T21:20:34.068Z,6.93
2023-09-17T21:23:01.439Z,5.88
2023-09-17T21:25:29.030Z,6.38
2023-09-17T21:27:55.755Z,6.45
2023-09-17T21:30:23.873Z,5.50
2023-09-17T21:32:50.575Z,6.35
2023-09-17T21:35:17.749Z,6.22
2023-09-17T21:37:44.609Z,5.97
2023-09-17T21:40:12.240Z,6.18
2023-09-17T21:42:39.071Z,5.88
2023-09-17T21:45:06.389Z,5.93
2023-09-17T21:47:33.373Z,5.97
2023-09-17T21:50:01.386Z,6.57
2023-09-17T21:52:31.467Z,5.88
2023-09-17T21:54:58.914Z,6.20
2023-09-17T21:57:25.922Z,6.25
2023-09-17T21:59:53.380Z,5.70
2023-09-17T22:02:21.013Z,5.63
2023-09-17T22:04:47.855Z,5.50
2023-09-17T22:07:14.678Z,5.53
2023-09-17T22:09:41.349Z,5.40
2023-09-17T22:12:08.854Z,6.18
2023-09-17T22:14:38.207Z,6.10
2023-09-17T22:17:04.888Z,6.22
2023-09-17T22:19:31.585Z,5.85
2023-09-17T22:21:58.275Z,5.78
2023-09-17T22:24:25.170Z,6.10
2023-09-17T22:26:52.127Z,5.93
2023-09-17T22:29:18.939Z,6.82
2023-09-17T22:31:45.872Z,5.65
2023-09-17T22:34:12.740Z,5.72
2023-09-17T22:36:40.542Z,5.28
2023-09-17T22:39:07.428Z,5.38
2023-09-17T22:41:34.497Z,5.35
2023-09-17T22:44:16.150Z,5.65
2023-09-17T22:46:47.703Z,6.25
2023-09-17T22:49:14.404Z,6.18
2023-09-17T22:51:41.169Z,6.00
2023-09-17T22:54:07.880Z,6.38
2023-09-17T22:56:34.646Z,6.05
2023-09-17T22:59:01.359Z,6.18
2023-09-17T23:01:28.004Z,6.22
2023-09-17T23:03:54.651Z,6.10
2023-09-17T23:06:23.267Z,6.25
2023-09-17T23:08:50.089Z,5.47
2023-09-17T23:11:16.907Z,5.85
2023-09-17T23:13:43.604Z,6.20
2023-09-17T23:16:10.302Z,6.30
2023-09-17T23:18:36.923Z,5.65
2023-09-17T23:21:05.519Z,5.78
2023-09-17T23:23:32.637Z,6.00
2023-09-17T23:26:02.524Z,5.97
2023-09-17T23:28:34.518Z,6.10
2023-09-17T23:31:07.750Z,6.50
2023-09-17T23:33:34.567Z,6.80
2023-09-17T23:36:01.878Z,5.88
2023-09-17T23:38:29.051Z,7.82
2023-09-17T23:40:56.557Z,6.88
2023-09-17T23:43:23.828Z,7.00
2023-09-17T23:45:50.489Z,6.80
2023-09-17T23:48:17.109Z,9.15
2023-09-17T23:50:44.127Z,8.48
2023-09-17T23:53:10.916Z,9.02
2023-09-17T23:55:37.593Z,7.85
2023-09-17T23:58:04.476Z,7.28
